createdAt,value
2018-07-02T00:00:10.136Z,54.60
2018-07-02T00:02:38.722Z,54.60
2018-07-02T00:05:07.362Z,54.50
2018-07-02T00:07:35.860Z,54.50
2018-07-02T00:10:04.727Z,54.90
2018-07-02T00:12:33.532Z,55.00
2018-07-02T00:15:02.377Z,54.80
2018-07-02T00:17:31.445Z,55.00
2018-07-02T00:19:59.955Z,55.10
2018-07-02T00:22:28.487Z,55.00
2018-07-02T00:24:56.988Z,55.10
2018-07-02T00:27:25.752Z,55.40
2018-07-02T00:29:54.641Z,55.40
2018-07-02T00:34:51.895Z,55.30
2018-07-02T00:37:20.658Z,55.50
2018-07-02T00:39:49.172Z,55.60
2018-07-02T00:42:17.734Z,55.40
2018-07-02T00:44:46.124Z,55.30
2018-07-02T00:47:14.535Z,54.90
2018-07-02T00:49:42.999Z,55.10
2018-07-02T00:52:11.872Z,55.30
2018-07-02T00:54:40.672Z,55.60
2018-07-02T00:57:09.430Z,56.00
2018-07-02T00:59:38.341Z,56.00
2018-07-02T01:02:06.815Z,55.80
2018-07-02T01:04:35.259Z,56.00
2018-07-02T01:07:03.795Z,56.10
2018-07-02T01:09:32.279Z,56.40
2018-07-02T01:12:00.939Z,56.10
2018-07-02T01:14:29.797Z,56.40
2018-07-02T01:16:58.280Z,56.20
2018-07-02T01:19:27.114Z,56.40
2018-07-02T01:21:55.976Z,56.40
2018-07-02T01:24:24.696Z,56.40
2018-07-02T01:29:22.120Z,56.90
2018-07-02T01:31:50.969Z,56.50
2018-07-02T01:34:19.496Z,56.90
2018-07-02T01:36:48.052Z,57.00
2018-07-02T01:39:16.636Z,57.10
2018-07-02T01:41:44.983Z,57.00
2018-07-02T01:44:13.635Z,57.10
2018-07-02T01:46:42.432Z,57.10
2018-07-02T01:49:10.946Z,57.10
2018-07-02T01:51:39.689Z,57.00
2018-07-02T01:54:08.567Z,57.10
2018-07-02T01:56:37.457Z,57.20
2018-07-02T01:59:06.236Z,57.10
2018-07-02T02:01:34.959Z,57.00
2018-07-02T02:04:03.752Z,57.50
2018-07-02T02:06:32.189Z,57.40
2018-07-02T02:09:00.621Z,57.50
2018-07-02T02:11:29.337Z,57.60
2018-07-02T02:13:58.187Z,57.80
2018-07-02T02:16:26.769Z,57.90
2018-07-02T02:18:55.238Z,58.00
2018-07-02T02:21:25.976Z,57.90
2018-07-02T02:23:54.703Z,58.10
2018-07-02T02:26:25.361Z,57.90
2018-07-02T02:28:53.827Z,58.10
2018-07-02T02:31:22.700Z,57.90
2018-07-02T02:33:51.086Z,58.00
2018-07-02T02:36:19.441Z,58.00
2018-07-02T02:38:47.858Z,58.20
2018-07-02T02:41:16.635Z,58.10
2018-07-02T02:43:45.609Z,58.20
2018-07-02T02:48:42.736Z,58.90
2018-07-02T02:51:11.107Z,58.20
2018-07-02T02:53:39.753Z,58.40
2018-07-02T02:56:08.127Z,58.80
2018-07-02T02:58:36.647Z,59.00
2018-07-02T03:01:05.136Z,59.20
2018-07-02T03:03:33.945Z,59.00
2018-07-02T03:06:02.707Z,59.10
2018-07-02T03:08:31.447Z,59.60
2018-07-02T03:11:00.116Z,59.20
2018-07-02T03:13:28.864Z,59.10
2018-07-02T03:15:57.303Z,59.10
2018-07-02T03:18:25.793Z,59.20
2018-07-02T03:20:54.245Z,59.20
2018-07-02T03:23:22.906Z,59.20
2018-07-02T03:25:51.705Z,59.10
2018-07-02T03:28:20.280Z,59.60
2018-07-02T03:33:17.265Z,59.70
2018-07-02T03:35:46.073Z,59.70
2018-07-02T03:38:14.716Z,59.80
2018-07-02T03:40:43.594Z,59.80
2018-07-02T03:43:12.128Z,59.80
2018-07-02T03:45:40.727Z,59.90
2018-07-02T03:48:09.557Z,60.10
2018-07-02T03:50:38.387Z,60.40
2018-07-02T03:53:06.826Z,60.60
2018-07-02T03:55:35.417Z,60.60
2018-07-02T03:58:03.800Z,60.60
2018-07-02T04:00:32.489Z,60.70
2018-07-02T04:03:01.324Z,60.90
2018-07-02T04:05:30.228Z,60.90
2018-07-02T04:07:58.649Z,60.80
2018-07-02T04:10:26.984Z,61.30
2018-07-02T04:12:55.540Z,61.30
2018-07-02T04:15:23.974Z,61.40
2018-07-02T04:17:52.499Z,61.60
2018-07-02T04:20:21.136Z,61.80
2018-07-02T04:22:49.968Z,62.10
2018-07-02T04:25:19.072Z,62.30
2018-07-02T04:27:47.540Z,61.80
2018-07-02T04:30:16.325Z,62.50
2018-07-02T04:32:44.792Z,63.30
2018-07-02T04:35:13.680Z,64.20
2018-07-02T04:37:42.551Z,63.90
2018-07-02T04:40:11.289Z,64.00
2018-07-02T04:42:40.107Z,64.50
2018-07-02T04:45:08.651Z,65.00
2018-07-02T04:47:37.016Z,64.60
2018-07-02T04:50:05.605Z,65.00
2018-07-02T04:52:34.024Z,65.00
2018-07-02T04:55:02.449Z,65.70
2018-07-02T04:57:30.933Z,65.40
2018-07-02T04:59:59.655Z,65.70
2018-07-02T05:02:28.271Z,66.00
2018-07-02T05:04:56.728Z,66.40
2018-07-02T05:07:25.221Z,66.10
2018-07-02T05:09:53.656Z,66.10
2018-07-02T05:12:22.141Z,66.30
2018-07-02T05:14:50.750Z,66.80
2018-07-02T05:17:19.386Z,66.60
2018-07-02T05:19:47.852Z,66.70
2018-07-02T05:22:16.475Z,66.30
2018-07-02T05:24:45.491Z,66.20
2018-07-02T05:27:14.235Z,66.30
2018-07-02T05:29:42.573Z,65.50
2018-07-02T05:34:39.304Z,66.30
2018-07-02T05:37:08.133Z,66.70
2018-07-02T05:39:36.534Z,65.20
2018-07-02T05:42:04.990Z,66.40
2018-07-02T05:44:33.435Z,66.20
2018-07-02T05:47:01.924Z,66.30
2018-07-02T05:49:30.653Z,65.50
2018-07-02T05:51:59.466Z,67.40
2018-07-02T05:54:28.073Z,66.80
2018-07-02T05:56:56.533Z,66.60
2018-07-02T05:59:25.291Z,67.00
2018-07-02T06:01:53.906Z,67.00
2018-07-02T06:04:22.608Z,68.00
2018-07-02T06:06:51.041Z,68.10
2018-07-02T06:09:19.800Z,68.70
2018-07-02T06:11:48.710Z,68.00
2018-07-02T06:16:57.289Z,67.90
2018-07-02T06:19:25.763Z,68.30
2018-07-02T06:21:54.301Z,67.90
2018-07-02T06:24:22.694Z,68.00
2018-07-02T06:26:51.429Z,68.00
2018-07-02T06:29:20.197Z,69.20
2018-07-02T06:31:48.644Z,69.10
2018-07-02T06:34:17.182Z,69.50
2018-07-02T06:36:45.921Z,70.30
2018-07-02T06:39:14.376Z,70.70
2018-07-02T06:41:42.852Z,69.40
2018-07-02T06:44:11.624Z,69.10
2018-07-02T06:46:40.539Z,69.50
2018-07-02T06:49:08.976Z,69.30
2018-07-02T06:51:37.421Z,69.30
2018-07-02T06:54:05.917Z,70.00
2018-07-02T06:56:34.428Z,69.30
2018-07-02T06:59:02.797Z,69.50
2018-07-02T07:01:31.108Z,68.20
2018-07-02T07:03:59.547Z,67.60
2018-07-02T07:06:29.157Z,68.70
2018-07-02T07:08:57.972Z,69.00
2018-07-02T07:11:28.322Z,68.00
2018-07-02T07:13:56.821Z,66.70
2018-07-02T07:16:27.229Z,66.30
2018-07-02T07:18:55.636Z,66.70
2018-07-02T07:21:24.404Z,65.30
2018-07-02T07:23:53.157Z,66.20
2018-07-02T07:26:21.978Z,66.70
2018-07-02T07:28:50.761Z,66.30
2018-07-02T07:31:19.569Z,65.60
2018-07-02T07:33:48.105Z,64.60
2018-07-02T07:36:16.827Z,64.40
2018-07-02T07:38:45.242Z,64.90
2018-07-02T07:41:13.975Z,65.20
2018-07-02T07:43:42.496Z,65.00
2018-07-02T07:46:10.940Z,65.60
2018-07-02T07:48:39.694Z,64.60
2018-07-02T07:51:08.139Z,65.30
2018-07-02T07:53:36.954Z,64.60
2018-07-02T07:56:05.389Z,64.80
2018-07-02T07:58:33.810Z,63.40
2018-07-02T08:01:02.723Z,62.40
2018-07-02T08:03:31.208Z,63.20
2018-07-02T08:05:59.588Z,62.60
2018-07-02T08:08:28.379Z,62.10
2018-07-02T08:10:56.810Z,59.60
2018-07-02T08:13:25.634Z,61.00
2018-07-02T08:15:54.629Z,61.80
2018-07-02T08:18:23.198Z,59.50
2018-07-02T08:20:52.105Z,60.20
2018-07-02T08:23:20.476Z,60.30
2018-07-02T08:25:48.835Z,59.80
2018-07-02T08:28:17.371Z,58.30
2018-07-02T08:30:46.047Z,59.00
2018-07-02T08:33:14.610Z,59.30
2018-07-02T08:35:43.422Z,57.20
2018-07-02T08:38:11.869Z,57.90
2018-07-02T08:40:40.440Z,58.90
2018-07-02T08:43:09.273Z,59.30
2018-07-02T08:45:37.985Z,58.80
2018-07-02T08:48:06.582Z,58.10
2018-07-02T08:50:35.265Z,57.80
2018-07-02T08:53:03.673Z,57.60
2018-07-02T08:55:32.357Z,57.30
2018-07-02T08:58:00.901Z,56.10
2018-07-02T09:00:29.406Z,55.30
2018-07-02T09:02:57.867Z,56.00
2018-07-02T09:05:26.421Z,54.10
2018-07-02T09:07:55.379Z,53.60
2018-07-02T09:10:24.109Z,52.50
2018-07-02T09:12:52.468Z,53.10
2018-07-02T09:18:04.160Z,55.10
2018-07-02T09:20:32.844Z,53.20
2018-07-02T09:23:01.470Z,53.40
2018-07-02T09:25:29.964Z,54.20
2018-07-02T09:27:58.408Z,52.00
2018-07-02T09:30:26.980Z,52.30
2018-07-02T09:32:55.391Z,52.10
2018-07-02T09:35:24.299Z,51.80
2018-07-02T09:40:22.035Z,51.80
2018-07-02T09:42:50.832Z,52.10
2018-07-02T09:45:19.729Z,51.70
2018-07-02T09:47:48.504Z,51.70
2018-07-02T09:50:17.386Z,51.10
2018-07-02T09:52:46.010Z,51.50
2018-07-02T09:55:14.877Z,52.80
2018-07-02T09:57:43.369Z,52.30
2018-07-02T10:00:11.766Z,52.90
2018-07-02T10:02:40.331Z,51.70
2018-07-02T10:05:08.826Z,52.50
2018-07-02T10:07:37.352Z,55.00
2018-07-02T10:12:34.424Z,53.20
2018-07-02T10:15:31.741Z,53.00
2018-07-02T10:18:00.924Z,52.90
2018-07-02T10:20:29.622Z,52.00
2018-07-02T10:22:58.480Z,50.50
2018-07-02T10:25:27.295Z,50.40
2018-07-02T10:27:55.759Z,51.90
2018-07-02T10:30:24.621Z,52.50
2018-07-02T10:32:53.360Z,51.70
2018-07-02T10:35:21.746Z,51.40
2018-07-02T10:37:50.165Z,50.40
2018-07-02T10:40:18.912Z,52.10
2018-07-02T10:42:47.333Z,52.40
2018-07-02T10:45:16.058Z,51.10
2018-07-02T10:47:44.777Z,51.30
2018-07-02T10:50:13.447Z,51.50
2018-07-02T10:52:41.889Z,50.00
2018-07-02T10:55:10.557Z,49.70
2018-07-02T10:57:39.076Z,50.90
2018-07-02T11:00:08.931Z,51.80
2018-07-02T11:02:37.598Z,52.20
2018-07-02T11:05:06.058Z,52.70
2018-07-02T11:07:34.926Z,51.20
2018-07-02T11:10:03.816Z,52.10
2018-07-02T11:12:32.578Z,51.80
2018-07-02T11:15:37.682Z,48.80
2018-07-02T11:18:06.355Z,50.10
2018-07-02T11:20:34.960Z,49.90
2018-07-02T11:23:03.605Z,50.40
2018-07-02T11:25:32.094Z,51.10
2018-07-02T11:28:00.771Z,50.30
2018-07-02T11:30:29.155Z,51.20
2018-07-02T11:32:57.904Z,51.90
2018-07-02T11:35:26.591Z,53.40
2018-07-02T11:37:55.587Z,54.10
2018-07-02T11:40:24.280Z,55.20
2018-07-02T11:42:52.749Z,54.30
2018-07-02T11:45:21.445Z,54.40
2018-07-02T11:47:50.141Z,54.70
2018-07-02T11:50:18.794Z,54.50
2018-07-02T11:52:47.699Z,50.90
2018-07-02T11:55:16.528Z,51.50
2018-07-02T11:57:44.836Z,51.60
2018-07-02T12:00:13.195Z,52.60
2018-07-02T12:02:41.667Z,54.20
2018-07-02T12:05:10.473Z,54.20
2018-07-02T12:07:38.852Z,53.30
2018-07-02T12:10:07.661Z,51.30
2018-07-02T12:12:36.025Z,52.50
2018-07-02T12:15:46.299Z,51.80
2018-07-02T12:18:14.995Z,53.10
2018-07-02T12:20:43.420Z,52.90
2018-07-02T12:23:12.109Z,52.40
2018-07-02T12:25:40.554Z,50.70
2018-07-02T12:28:09.414Z,51.00
2018-07-02T12:30:38.027Z,50.80
2018-07-02T12:33:06.389Z,49.70
2018-07-02T12:35:35.273Z,49.00
2018-07-02T12:38:03.868Z,49.70
2018-07-02T12:40:32.240Z,49.70
2018-07-02T12:43:00.662Z,50.30
2018-07-02T12:45:29.401Z,49.40
2018-07-02T12:47:58.203Z,50.40
2018-07-02T12:50:26.886Z,48.40
2018-07-02T12:52:55.659Z,49.50
2018-07-02T12:55:24.381Z,48.30
2018-07-02T12:57:53.140Z,49.90
2018-07-02T13:00:22.152Z,49.80
2018-07-02T13:02:50.638Z,47.20
2018-07-02T13:05:19.202Z,46.70
2018-07-02T13:07:48.037Z,46.70
2018-07-02T13:10:16.499Z,48.40
2018-07-02T13:12:45.150Z,48.20
2018-07-02T13:18:32.494Z,48.80
2018-07-02T13:21:00.918Z,46.60
2018-07-02T13:23:29.431Z,47.90
2018-07-02T13:25:57.869Z,49.10
2018-07-02T13:28:26.880Z,48.60
2018-07-02T13:30:55.689Z,47.00
2018-07-02T13:33:24.125Z,46.60
2018-07-02T13:35:52.641Z,45.40
2018-07-02T13:38:21.054Z,47.00
2018-07-02T13:40:49.497Z,46.00
2018-07-02T13:43:18.270Z,44.60
2018-07-02T13:45:47.102Z,45.70
2018-07-02T13:48:15.504Z,45.00
2018-07-02T13:50:43.833Z,44.80
2018-07-02T13:53:12.380Z,45.00
2018-07-02T13:55:40.736Z,45.30
2018-07-02T14:00:37.592Z,45.60
2018-07-02T14:03:06.029Z,45.80
2018-07-02T14:05:34.541Z,46.70
2018-07-02T14:08:03.330Z,45.20
2018-07-02T14:10:32.027Z,45.30
2018-07-02T14:13:00.625Z,44.70
2018-07-02T14:18:47.964Z,46.10
2018-07-02T14:21:16.439Z,44.60
2018-07-02T14:23:45.113Z,45.60
2018-07-02T14:26:13.723Z,46.40
2018-07-02T14:28:42.486Z,44.80
2018-07-02T14:31:10.810Z,44.30
2018-07-02T14:33:39.183Z,45.00
2018-07-02T14:36:07.683Z,45.70
2018-07-02T14:38:36.033Z,44.90
2018-07-02T14:41:04.517Z,45.00
2018-07-02T14:43:32.913Z,46.00
2018-07-02T14:46:01.625Z,45.00
2018-07-02T14:48:30.497Z,44.80
2018-07-02T14:50:58.952Z,45.50
2018-07-02T14:53:27.529Z,46.80
2018-07-02T14:55:55.974Z,46.50
2018-07-02T14:58:24.951Z,44.60
2018-07-02T15:00:53.812Z,45.00
2018-07-02T15:03:22.252Z,45.00
2018-07-02T15:05:50.692Z,45.00
2018-07-02T15:08:19.161Z,45.10
2018-07-02T15:10:47.522Z,44.60
2018-07-02T15:13:16.435Z,44.60
2018-07-02T15:19:05.420Z,45.10
2018-07-02T15:21:34.124Z,46.10
2018-07-02T15:24:02.833Z,46.10
2018-07-02T15:26:31.831Z,46.40
2018-07-02T15:29:00.148Z,46.10
2018-07-02T15:31:29.717Z,46.40
2018-07-02T15:33:58.087Z,46.00
2018-07-02T15:36:27.974Z,44.60
2018-07-02T15:38:56.536Z,45.70
2018-07-02T15:41:25.303Z,46.40
2018-07-02T15:43:54.210Z,44.70
2018-07-02T15:46:22.748Z,44.60
2018-07-02T15:48:51.524Z,44.80
2018-07-02T15:51:20.229Z,44.90
2018-07-02T15:53:48.612Z,45.00
2018-07-02T15:56:17.232Z,43.70
2018-07-02T15:58:45.763Z,45.70
2018-07-02T16:01:14.424Z,47.70
2018-07-02T16:03:43.270Z,49.60
2018-07-02T16:06:12.115Z,50.60
2018-07-02T16:08:40.836Z,49.70
2018-07-02T16:11:17.348Z,51.30
2018-07-02T16:13:45.846Z,51.20
2018-07-02T16:16:56.633Z,49.30
2018-07-02T16:19:25.413Z,49.90
2018-07-02T16:21:53.768Z,50.30
2018-07-02T16:24:22.568Z,51.00
2018-07-02T16:26:51.212Z,50.30
2018-07-02T16:29:19.896Z,51.00
2018-07-02T16:31:48.274Z,51.90
2018-07-02T16:34:17.168Z,51.30
2018-07-02T16:36:45.589Z,51.90
2018-07-02T16:39:14.087Z,52.10
2018-07-02T16:41:42.828Z,52.40
2018-07-02T16:44:11.593Z,51.40
2018-07-02T16:46:40.304Z,52.00
2018-07-02T16:49:08.849Z,51.30
2018-07-02T16:51:37.560Z,51.20
2018-07-02T16:54:06.353Z,51.50
2018-07-02T16:56:35.244Z,51.10
2018-07-02T16:59:04.000Z,51.90
2018-07-02T17:01:32.488Z,52.60
2018-07-02T17:04:01.301Z,53.20
2018-07-02T17:06:31.056Z,52.70
2018-07-02T17:08:59.421Z,53.40
2018-07-02T17:11:29.160Z,53.20
2018-07-02T17:13:57.823Z,53.30
2018-07-02T17:17:07.550Z,53.50
2018-07-02T17:19:36.021Z,52.90
2018-07-02T17:22:04.572Z,53.80
2018-07-02T17:24:32.988Z,53.70
2018-07-02T17:27:01.499Z,53.80
2018-07-02T17:29:30.320Z,53.50
2018-07-02T17:31:58.879Z,54.30
2018-07-02T17:34:27.389Z,54.20
2018-07-02T17:36:56.185Z,54.30
2018-07-02T17:39:24.653Z,54.30
2018-07-02T17:41:53.268Z,54.60
2018-07-02T17:44:21.693Z,54.30
2018-07-02T17:46:50.051Z,54.20
2018-07-02T17:49:18.670Z,54.30
2018-07-02T17:51:47.260Z,54.60
2018-07-02T17:54:15.773Z,54.40
2018-07-02T17:56:44.537Z,54.20
2018-07-02T17:59:12.854Z,53.60
2018-07-02T18:01:41.710Z,53.70
2018-07-02T18:04:10.215Z,53.70
2018-07-02T18:06:38.996Z,53.70
2018-07-02T18:09:09.841Z,53.80
2018-07-02T18:11:38.384Z,53.70
2018-07-02T18:14:07.837Z,53.90
2018-07-02T18:17:21.680Z,53.90
2018-07-02T18:19:51.725Z,53.80
2018-07-02T18:22:20.589Z,53.90
2018-07-02T18:24:49.637Z,54.10
2018-07-02T18:27:19.433Z,54.00
2018-07-02T18:29:49.190Z,54.10
2018-07-02T18:32:18.391Z,54.20
2018-07-02T18:34:47.898Z,54.30
2018-07-02T18:37:17.768Z,54.20
2018-07-02T18:39:47.509Z,54.20
2018-07-02T18:42:17.157Z,54.40
2018-07-02T18:44:46.872Z,54.50
2018-07-02T18:47:16.573Z,54.80
2018-07-02T18:49:46.688Z,54.40
2018-07-02T18:52:16.783Z,54.50
2018-07-02T18:54:46.550Z,54.80
2018-07-02T18:57:16.607Z,55.10
2018-07-02T18:59:46.620Z,55.00
2018-07-02T19:02:17.116Z,55.80
2018-07-02T19:04:46.372Z,55.80
2018-07-02T19:07:15.526Z,56.50
2018-07-02T19:09:44.760Z,56.50
2018-07-02T19:12:14.117Z,57.40
2018-07-02T19:18:02.985Z,56.90
2018-07-02T19:20:32.857Z,57.80
2018-07-02T19:23:03.125Z,58.40
2018-07-02T19:25:34.088Z,58.70
2018-07-02T19:28:04.097Z,58.80
2018-07-02T19:30:34.265Z,59.00
2018-07-02T19:33:03.368Z,59.00
2018-07-02T19:35:32.592Z,58.80
2018-07-02T19:38:01.845Z,59.00
2018-07-02T19:40:31.812Z,59.10
2018-07-02T19:43:01.416Z,59.00
2018-07-02T19:45:31.593Z,58.80
2018-07-02T19:48:00.714Z,59.20
2018-07-02T19:50:29.999Z,59.30
2018-07-02T19:53:00.776Z,58.90
2018-07-02T19:55:30.537Z,58.10
2018-07-02T19:58:00.538Z,57.30
2018-07-02T20:00:29.764Z,56.30
2018-07-02T20:02:58.941Z,57.40
2018-07-02T20:05:29.005Z,58.10
2018-07-02T20:07:59.288Z,58.40
2018-07-02T20:10:29.105Z,58.60
2018-07-02T20:12:59.080Z,58.80
2018-07-02T20:18:48.027Z,59.20
2018-07-02T20:21:17.908Z,59.40
2018-07-02T20:23:47.837Z,59.10
2018-07-02T20:29:37.283Z,58.60
2018-07-02T20:32:07.249Z,59.30
2018-07-02T20:34:36.394Z,58.90
2018-07-02T20:37:05.609Z,58.80
2018-07-02T20:39:34.880Z,58.50
2018-07-02T20:42:04.081Z,58.80
2018-07-02T20:44:33.257Z,59.00
2018-07-02T20:47:03.016Z,59.10
2018-07-02T20:52:01.568Z,59.40
2018-07-02T20:54:30.919Z,59.20
2018-07-02T20:57:00.863Z,59.10
2018-07-02T20:59:29.983Z,59.20
2018-07-02T21:01:59.098Z,59.20
2018-07-02T21:04:28.064Z,59.30
2018-07-02T21:06:57.233Z,59.40
2018-07-02T21:09:26.493Z,59.40
2018-07-02T21:11:55.788Z,59.70
2018-07-02T21:14:52.703Z,59.80
2018-07-02T21:17:48.544Z,59.60
2018-07-02T21:20:17.560Z,59.90
2018-07-02T21:22:46.018Z,59.80
2018-07-02T21:25:14.685Z,59.60
2018-07-02T21:27:43.368Z,59.80
2018-07-02T21:30:12.267Z,59.90
2018-07-02T21:32:41.018Z,59.70
2018-07-02T21:35:10.033Z,59.80
2018-07-02T21:37:38.394Z,59.30
2018-07-02T21:40:06.888Z,60.00
2018-07-02T21:42:35.678Z,60.10
2018-07-02T21:45:04.513Z,60.00
2018-07-02T21:47:33.010Z,59.70
2018-07-02T21:50:01.917Z,60.40
2018-07-02T21:52:30.425Z,60.60
2018-07-02T21:54:58.908Z,60.40
2018-07-02T21:57:27.778Z,60.50
2018-07-02T21:59:56.428Z,60.40
2018-07-02T22:02:25.076Z,60.40
2018-07-02T22:04:54.047Z,60.60
2018-07-02T22:07:22.559Z,60.40
2018-07-02T22:09:51.115Z,60.90
2018-07-02T22:12:20.020Z,61.00
2018-07-02T22:14:48.662Z,60.80
2018-07-02T22:17:17.192Z,60.80
2018-07-02T22:19:45.908Z,61.00
2018-07-02T22:22:14.360Z,60.90
2018-07-02T22:24:42.830Z,61.20
2018-07-02T22:27:11.832Z,61.40
2018-07-02T22:29:40.276Z,61.40
2018-07-02T22:32:08.843Z,61.30
2018-07-02T22:34:37.616Z,61.20
2018-07-02T22:37:06.496Z,61.90
2018-07-02T22:39:35.136Z,62.00
2018-07-02T22:42:03.656Z,61.70
2018-07-02T22:44:32.107Z,61.80
2018-07-02T22:47:00.805Z,61.80
2018-07-02T22:49:29.518Z,61.80
2018-07-02T22:51:57.941Z,61.90
2018-07-02T22:54:26.895Z,61.90
2018-07-02T22:56:55.477Z,62.00
2018-07-02T22:59:24.288Z,61.90
2018-07-02T23:01:52.704Z,61.90
2018-07-02T23:04:21.134Z,61.70
2018-07-02T23:06:49.513Z,61.70
2018-07-02T23:09:17.896Z,61.80
2018-07-02T23:11:46.782Z,61.50
2018-07-02T23:14:15.596Z,61.40
2018-07-02T23:16:43.917Z,61.40
2018-07-02T23:19:12.352Z,61.50
2018-07-02T23:21:40.776Z,61.20
2018-07-02T23:24:09.530Z,61.50
2018-07-02T23:26:37.990Z,61.20
2018-07-02T23:29:06.598Z,61.20
2018-07-02T23:31:34.980Z,61.50
2018-07-02T23:34:03.594Z,61.70
2018-07-02T23:36:32.843Z,61.40
2018-07-02T23:39:01.240Z,61.30
2018-07-02T23:41:31.209Z,61.30
2018-07-02T23:43:59.687Z,61.10
2018-07-02T23:46:29.504Z,61.50
2018-07-02T23:48:57.876Z,61.40
2018-07-02T23:51:26.632Z,61.10
2018-07-02T23:53:55.513Z,61.40
2018-07-02T23:56:23.851Z,61.40
2018-07-02T23:58:52.278Z,61.80
